createdAt,value
2022-11-16T00:01:29.778Z,8.65
2022-11-16T00:03:58.297Z,7.78
2022-11-16T00:06:24.738Z,9.70
2022-11-16T00:09:13.270Z,9.98
2022-11-16T00:11:39.949Z,7.70
2022-11-16T00:14:06.526Z,7.63
2022-11-16T00:16:33.903Z,7.85
2022-11-16T00:19:03.260Z,10.07
2022-11-16T00:21:30.259Z,7.40
2022-11-16T00:23:56.854Z,9.30
2022-11-16T00:26:24.015Z,9.25
2022-11-16T00:28:52.490Z,8.52
2022-11-16T00:31:19.237Z,8.85
2022-11-16T00:33:45.723Z,11.18
2022-11-16T00:36:13.447Z,9.20
2022-11-16T00:38:40.932Z,9.10
2022-11-16T00:41:07.963Z,8.18
2022-11-16T00:43:35.307Z,11.18
2022-11-16T00:46:01.805Z,9.65
2022-11-16T00:48:28.391Z,9.60
2022-11-16T00:50:54.870Z,9.80
2022-11-16T00:53:21.248Z,11.98
2022-11-16T00:55:48.351Z,10.07
2022-11-16T00:58:15.614Z,9.68
2022-11-16T01:00:42.855Z,12.88
2022-11-16T01:03:09.722Z,10.73
2022-11-16T01:09:23.088Z,9.57
2022-11-16T01:12:07.733Z,10.27
2022-11-16T01:14:37.969Z,10.68
2022-11-16T01:17:04.508Z,8.63
2022-11-16T01:19:31.029Z,12.23
2022-11-16T01:21:57.846Z,9.35
2022-11-16T01:24:25.791Z,8.63
2022-11-16T01:26:56.662Z,8.55
2022-11-16T01:29:25.414Z,9.00
2022-11-16T01:31:52.174Z,8.15
2022-11-16T01:34:18.504Z,7.95
2022-11-16T01:36:44.834Z,7.18
2022-11-16T01:39:12.847Z,8.20
2022-11-16T01:41:40.885Z,8.70
2022-11-16T01:44:33.040Z,10.77
2022-11-16T01:47:00.380Z,8.88
2022-11-16T01:49:29.691Z,7.80
2022-11-16T01:52:01.654Z,8.77
2022-11-16T01:54:29.255Z,8.88
2022-11-16T01:56:56.865Z,6.55
2022-11-16T01:59:23.262Z,8.15
2022-11-16T02:01:49.618Z,7.05
2022-11-16T02:04:15.959Z,8.85
2022-11-16T02:06:54.022Z,9.32
2022-11-16T02:09:53.617Z,7.82
2022-11-16T02:12:35.118Z,8.93
2022-11-16T02:15:20.145Z,10.93
2022-11-16T02:17:59.955Z,9.33
2022-11-16T02:20:41.238Z,11.40
2022-11-16T02:23:16.691Z,8.40
2022-11-16T02:28:47.819Z,9.38
2022-11-16T02:33:46.749Z,11.38
2022-11-16T02:36:22.499Z,8.88
2022-11-16T02:38:56.982Z,10.40
2022-11-16T02:41:26.373Z,10.18
2022-11-16T02:44:00.768Z,8.85
2022-11-16T02:46:30.858Z,12.68
2022-11-16T02:49:01.022Z,12.25
2022-11-16T02:51:29.325Z,10.18
2022-11-16T02:54:08.832Z,7.78
2022-11-16T02:57:04.168Z,10.38
2022-11-16T02:59:39.813Z,11.68
2022-11-16T03:02:46.791Z,10.15
2022-11-16T03:05:31.873Z,9.30
2022-11-16T03:08:07.411Z,9.53
2022-11-16T03:13:25.511Z,12.93
2022-11-16T03:15:54.863Z,11.75
2022-11-16T03:18:23.429Z,13.50
2022-11-16T03:20:52.488Z,10.93
2022-11-16T03:23:18.946Z,8.05
2022-11-16T03:25:51.345Z,10.27
2022-11-16T03:28:33.622Z,10.80
2022-11-16T03:31:09.771Z,12.88
2022-11-16T03:33:51.874Z,11.80
2022-11-16T03:36:31.336Z,12.15
2022-11-16T03:39:05.997Z,15.07
2022-11-16T03:41:35.393Z,11.10
2022-11-16T03:44:02.221Z,13.02
2022-11-16T03:46:28.881Z,12.85
2022-11-16T03:49:00.411Z,11.25
2022-11-16T03:51:27.312Z,12.35
2022-11-16T03:53:53.739Z,16.08
2022-11-16T03:56:20.224Z,16.27
2022-11-16T03:58:46.764Z,12.63
2022-11-16T04:01:13.131Z,14.45
2022-11-16T04:03:39.459Z,15.23
2022-11-16T04:06:24.554Z,13.85
2022-11-16T04:09:09.349Z,14.00
2022-11-16T04:11:54.652Z,15.85
2022-11-16T04:14:41.865Z,14.43
2022-11-16T04:17:35.180Z,14.60
2022-11-16T04:20:20.342Z,13.13
2022-11-16T04:23:14.709Z,15.10
2022-11-16T04:25:44.182Z,16.48
2022-11-16T04:28:13.409Z,13.27
2022-11-16T04:31:04.813Z,17.20
2022-11-16T04:33:50.600Z,15.27
2022-11-16T04:36:35.766Z,15.93
2022-11-16T04:39:02.308Z,18.88
2022-11-16T04:41:48.852Z,19.02
2022-11-16T04:44:15.179Z,17.83
2022-11-16T04:47:00.560Z,19.75
2022-11-16T04:49:26.867Z,19.40
2022-11-16T04:51:53.329Z,19.33
2022-11-16T04:54:19.723Z,19.95
2022-11-16T04:56:46.073Z,20.88
2022-11-16T04:59:12.408Z,17.67
2022-11-16T05:01:57.405Z,19.23
2022-11-16T05:04:23.733Z,22.65
2022-11-16T05:06:50.209Z,19.05
2022-11-16T05:09:16.580Z,20.38
2022-11-16T05:11:42.922Z,19.52
2022-11-16T05:14:10.203Z,20.27
2022-11-16T05:16:36.835Z,18.65
2022-11-16T05:19:22.663Z,18.67
2022-11-16T05:21:49.046Z,16.27
2022-11-16T05:24:33.370Z,18.75
2022-11-16T05:27:12.733Z,18.77
2022-11-16T05:29:39.390Z,19.20
2022-11-16T05:32:07.159Z,19.83
2022-11-16T05:34:33.932Z,20.55
2022-11-16T05:37:00.263Z,18.77
2022-11-16T05:39:26.703Z,20.98
2022-11-16T05:41:53.216Z,22.70
2022-11-16T05:44:19.862Z,20.38
2022-11-16T05:46:46.852Z,22.92
2022-11-16T05:49:14.351Z,22.10
2022-11-16T05:51:43.018Z,23.75
2022-11-16T05:54:13.211Z,21.85
2022-11-16T05:56:39.882Z,22.92
2022-11-16T05:59:07.841Z,26.63
2022-11-16T06:01:35.570Z,25.45
2022-11-16T06:04:02.115Z,19.85
2022-11-16T06:06:28.862Z,24.73
2022-11-16T06:08:55.393Z,24.80
2022-11-16T06:11:22.182Z,22.20
2022-11-16T06:13:48.562Z,21.67
2022-11-16T06:16:14.935Z,21.80
2022-11-16T06:18:43.554Z,20.88
2022-11-16T06:21:11.114Z,22.48
2022-11-16T06:23:37.753Z,21.90
2022-11-16T06:26:05.104Z,21.27
2022-11-16T06:28:32.213Z,22.13
2022-11-16T06:30:58.811Z,22.25
2022-11-16T06:33:27.651Z,23.48
2022-11-16T06:35:57.166Z,21.42
2022-11-16T06:38:23.599Z,21.20
2022-11-16T06:40:54.262Z,21.02
2022-11-16T06:43:21.445Z,19.58
2022-11-16T06:45:50.254Z,21.92
2022-11-16T06:48:17.331Z,21.15
2022-11-16T06:50:43.706Z,21.45
2022-11-16T06:53:09.998Z,20.02
2022-11-16T06:55:36.451Z,22.30
2022-11-16T06:58:02.876Z,19.92
2022-11-16T07:00:29.219Z,20.35
2022-11-16T07:02:55.565Z,18.90
2022-11-16T07:05:21.985Z,18.95
2022-11-16T07:07:48.371Z,18.65
2022-11-16T07:10:14.745Z,18.50
2022-11-16T07:12:41.170Z,19.00
2022-11-16T07:15:07.993Z,17.58
2022-11-16T07:17:34.613Z,20.08
2022-11-16T07:20:18.993Z,16.83
2022-11-16T07:22:45.409Z,13.30
2022-11-16T07:25:12.134Z,14.82
2022-11-16T07:27:38.443Z,12.70
2022-11-16T07:30:06.026Z,12.40
2022-11-16T07:32:32.426Z,14.95
2022-11-16T07:34:59.640Z,12.23
2022-11-16T07:37:26.242Z,13.80
2022-11-16T07:39:52.672Z,13.18
2022-11-16T07:42:19.018Z,11.32
2022-11-16T07:44:45.341Z,11.00
2022-11-16T07:47:11.677Z,10.68
2022-11-16T07:49:38.034Z,9.57
2022-11-16T07:52:04.330Z,10.73
2022-11-16T07:54:30.708Z,9.70
2022-11-16T07:56:57.078Z,11.98
2022-11-16T07:59:23.527Z,7.57
2022-11-16T08:01:50.022Z,9.88
2022-11-16T08:04:17.441Z,7.07
2022-11-16T08:06:44.438Z,8.40
2022-11-16T08:09:10.775Z,7.60
2022-11-16T08:11:37.927Z,7.55
2022-11-16T08:14:04.318Z,8.48
2022-11-16T08:16:33.075Z,6.80
2022-11-16T08:19:00.877Z,4.72
2022-11-16T08:21:27.346Z,3.80
2022-11-16T08:23:58.372Z,2.20
2022-11-16T08:26:25.140Z,4.45
2022-11-16T08:28:53.542Z,3.55
2022-11-16T08:31:22.332Z,4.03
2022-11-16T08:33:48.662Z,3.08
2022-11-16T08:36:18.367Z,5.93
2022-11-16T08:38:46.311Z,7.30
2022-11-16T08:41:13.013Z,5.40
2022-11-16T08:43:40.356Z,4.38
2022-11-16T08:46:08.033Z,4.82
2022-11-16T08:48:35.521Z,5.38
2022-11-16T08:51:17.447Z,8.05
2022-11-16T08:53:44.886Z,8.88
2022-11-16T08:56:13.163Z,4.43
2022-11-16T08:58:43.357Z,4.65
2022-11-16T09:01:15.512Z,6.07
2022-11-16T09:03:42.209Z,6.07
2022-11-16T09:06:09.735Z,3.17
2022-11-16T09:08:38.450Z,4.63
2022-11-16T09:11:06.914Z,6.07
2022-11-16T09:13:33.303Z,4.80
2022-11-16T09:16:00.815Z,3.67
2022-11-16T09:18:27.858Z,5.10
2022-11-16T09:20:54.617Z,8.52
2022-11-16T09:23:25.261Z,5.97
2022-11-16T09:25:52.834Z,7.75
2022-11-16T09:28:20.482Z,3.55
2022-11-16T09:30:49.752Z,7.50
2022-11-16T09:33:16.387Z,3.80
2022-11-16T09:35:42.958Z,2.17
2022-11-16T09:38:09.934Z,8.50
2022-11-16T09:40:38.794Z,4.03
2022-11-16T09:43:05.119Z,6.15
2022-11-16T09:45:55.359Z,8.57
2022-11-16T09:48:23.702Z,5.72
2022-11-16T09:50:54.253Z,6.80
2022-11-16T09:53:25.705Z,4.43
2022-11-16T09:55:54.599Z,4.68
2022-11-16T09:58:27.698Z,4.43
2022-11-16T10:01:04.517Z,4.60
2022-11-16T10:03:38.102Z,6.35
2022-11-16T10:06:16.666Z,7.13
2022-11-16T10:08:51.384Z,2.75
2022-11-16T10:11:29.026Z,4.82
2022-11-16T10:14:10.388Z,4.68
2022-11-16T10:16:53.202Z,4.15
2022-11-16T10:19:34.171Z,4.70
2022-11-16T10:22:19.181Z,6.88
2022-11-16T10:24:58.737Z,3.93
2022-11-16T10:27:46.987Z,4.82
2022-11-16T10:30:21.325Z,6.82
2022-11-16T10:32:54.955Z,8.68
2022-11-16T10:35:29.663Z,11.18
2022-11-16T10:37:59.367Z,3.08
2022-11-16T10:40:36.055Z,5.35
2022-11-16T10:43:15.782Z,8.27
2022-11-16T10:46:05.277Z,7.32
2022-11-16T10:48:54.346Z,7.88
2022-11-16T10:51:20.756Z,8.32
2022-11-16T10:53:47.291Z,5.75
2022-11-16T10:56:20.886Z,5.03
2022-11-16T10:59:02.185Z,5.60
2022-11-16T11:01:31.750Z,7.65
2022-11-16T11:04:13.040Z,6.43
2022-11-16T11:06:40.113Z,5.65
2022-11-16T11:09:31.331Z,8.70
2022-11-16T11:12:16.187Z,4.22
2022-11-16T11:14:42.516Z,6.15
2022-11-16T11:17:12.198Z,4.88
2022-11-16T11:19:38.628Z,5.30
2022-11-16T11:22:04.973Z,6.07
2022-11-16T11:24:46.969Z,5.88
2022-11-16T11:27:14.130Z,5.57
2022-11-16T11:29:42.957Z,7.75
2022-11-16T11:32:23.926Z,5.35
2022-11-16T11:34:53.832Z,6.20
2022-11-16T11:37:25.018Z,6.13
2022-11-16T11:40:07.549Z,3.28
2022-11-16T11:42:33.908Z,6.70
2022-11-16T11:45:06.308Z,9.18
2022-11-16T11:48:01.646Z,9.85
2022-11-16T11:50:42.566Z,5.47
2022-11-16T11:53:21.045Z,5.68
2022-11-16T11:55:57.379Z,4.55
2022-11-16T11:58:30.087Z,6.00
2022-11-16T12:01:25.715Z,6.13
2022-11-16T12:04:31.270Z,8.48
2022-11-16T12:07:24.099Z,7.43
2022-11-16T12:10:05.090Z,6.35
2022-11-16T12:12:43.602Z,6.68
2022-11-16T12:15:31.790Z,8.85
2022-11-16T12:18:37.802Z,7.68
2022-11-16T12:21:09.932Z,7.05
2022-11-16T12:23:47.948Z,5.40
2022-11-16T12:26:26.828Z,7.00
2022-11-16T12:29:08.294Z,6.30
2022-11-16T12:31:52.862Z,5.90
2022-11-16T12:34:37.463Z,4.97
2022-11-16T12:37:14.613Z,3.78
2022-11-16T12:39:53.081Z,4.43
2022-11-16T12:42:22.234Z,6.63
2022-11-16T12:45:16.496Z,6.38
2022-11-16T12:48:01.360Z,5.28
2022-11-16T12:50:57.039Z,6.72
2022-11-16T12:54:14.776Z,7.38
2022-11-16T12:56:59.626Z,7.38
2022-11-16T12:59:53.376Z,4.68
2022-11-16T13:02:35.446Z,7.47
2022-11-16T13:05:13.144Z,5.00
2022-11-16T13:07:46.525Z,3.17
2022-11-16T13:10:36.847Z,4.10
2022-11-16T13:13:35.331Z,3.83
2022-11-16T13:16:02.001Z,6.25
2022-11-16T13:18:29.772Z,5.38
2022-11-16T13:21:04.931Z,4.60
2022-11-16T13:23:31.503Z,4.90
2022-11-16T13:26:04.668Z,4.05
2022-11-16T13:28:51.019Z,4.82
2022-11-16T13:31:48.114Z,6.78
2022-11-16T13:34:22.771Z,4.97
2022-11-16T13:36:49.156Z,4.90
2022-11-16T13:39:22.737Z,4.00
2022-11-16T13:42:05.369Z,3.67
2022-11-16T13:44:32.651Z,8.45
2022-11-16T13:47:04.508Z,3.95
2022-11-16T13:49:37.885Z,2.90
2022-11-16T13:52:22.548Z,2.75
2022-11-16T13:54:53.027Z,2.50
2022-11-16T13:57:24.430Z,5.65
2022-11-16T14:00:00.721Z,5.22
2022-11-16T14:02:31.789Z,3.95
2022-11-16T14:05:14.072Z,2.72
2022-11-16T14:07:44.732Z,7.25
2022-11-16T14:10:13.315Z,5.72
2022-11-16T14:12:53.713Z,8.35
2022-11-16T14:15:21.835Z,5.05
2022-11-16T14:18:03.132Z,4.30
2022-11-16T14:20:53.774Z,4.07
2022-11-16T14:23:26.219Z,2.78
2022-11-16T14:26:07.652Z,4.72
2022-11-16T14:28:48.802Z,6.90
2022-11-16T14:31:22.931Z,4.78
2022-11-16T14:33:53.031Z,4.72
2022-11-16T14:36:36.251Z,6.28
2022-11-16T14:39:24.486Z,8.57
2022-11-16T14:41:51.449Z,5.70
2022-11-16T14:44:21.838Z,5.82
2022-11-16T14:46:48.497Z,5.97
2022-11-16T14:49:17.022Z,6.88
2022-11-16T14:51:50.904Z,5.75
2022-11-16T14:54:42.075Z,5.05
2022-11-16T14:57:18.104Z,7.15
2022-11-16T14:59:44.416Z,6.53
2022-11-16T15:02:24.080Z,12.57
2022-11-16T15:04:52.573Z,4.20
2022-11-16T15:07:23.747Z,6.80
2022-11-16T15:09:54.060Z,5.00
2022-11-16T15:12:42.423Z,6.25
2022-11-16T15:15:14.780Z,6.00
2022-11-16T15:17:44.471Z,4.95
2022-11-16T15:20:19.558Z,6.45
2022-11-16T15:22:48.554Z,6.80
2022-11-16T15:25:36.468Z,8.05
2022-11-16T15:28:05.651Z,8.02
2022-11-16T15:30:36.847Z,10.23
2022-11-16T15:33:10.376Z,7.47
2022-11-16T15:35:37.745Z,9.85
2022-11-16T15:38:05.234Z,5.88
2022-11-16T15:40:33.953Z,5.90
2022-11-16T15:43:02.483Z,7.22
2022-11-16T15:45:30.953Z,8.50
2022-11-16T15:48:00.432Z,5.28
2022-11-16T15:50:27.313Z,7.32
2022-11-16T15:52:55.306Z,7.35
2022-11-16T15:55:31.594Z,7.63
2022-11-16T15:58:00.970Z,3.63
2022-11-16T16:00:28.801Z,4.38
2022-11-16T16:03:05.807Z,9.27
2022-11-16T16:05:41.699Z,4.85
2022-11-16T16:08:25.490Z,7.72
2022-11-16T16:11:14.740Z,5.47
2022-11-16T16:13:56.129Z,8.20
2022-11-16T16:16:37.389Z,11.07
2022-11-16T16:19:23.434Z,4.70
2022-11-16T16:21:50.238Z,6.03
2022-11-16T16:24:41.103Z,8.63
2022-11-16T16:27:12.891Z,7.05
2022-11-16T16:29:39.826Z,6.50
2022-11-16T16:32:08.842Z,5.80
2022-11-16T16:34:37.919Z,4.22
2022-11-16T16:37:10.543Z,7.63
2022-11-16T16:39:38.587Z,12.20
2022-11-16T16:42:08.851Z,10.63
2022-11-16T16:44:35.169Z,6.07
2022-11-16T16:47:01.544Z,8.88
2022-11-16T16:49:27.862Z,6.57
2022-11-16T16:51:54.259Z,11.80
2022-11-16T16:54:20.627Z,6.28
2022-11-16T16:56:46.931Z,8.80
2022-11-16T16:59:14.149Z,6.18
2022-11-16T17:01:40.944Z,9.20
2022-11-16T17:04:07.355Z,9.38
2022-11-16T17:06:34.269Z,6.85
2022-11-16T17:09:00.643Z,6.43
2022-11-16T17:11:27.017Z,6.15
2022-11-16T17:13:53.538Z,7.18
2022-11-16T17:16:19.921Z,7.72
2022-11-16T17:18:47.765Z,5.18
2022-11-16T17:21:14.607Z,8.40
2022-11-16T17:23:41.013Z,7.13
2022-11-16T17:26:09.484Z,9.07
2022-11-16T17:28:35.853Z,26.90
2022-11-16T17:31:06.871Z,15.27
2022-11-16T17:33:38.251Z,10.77
2022-11-16T17:36:06.199Z,9.05
2022-11-16T17:38:36.431Z,10.95
2022-11-16T17:41:05.341Z,10.68
2022-11-16T17:43:31.907Z,7.15
2022-11-16T17:46:19.402Z,11.63
2022-11-16T17:48:47.444Z,9.50
2022-11-16T17:51:16.084Z,7.45
2022-11-16T17:53:45.343Z,8.95
2022-11-16T17:56:13.829Z,9.18
2022-11-16T17:58:40.305Z,11.52
2022-11-16T18:01:06.721Z,9.68
2022-11-16T18:03:36.570Z,11.02
2022-11-16T18:06:08.514Z,7.47
2022-11-16T18:08:35.860Z,12.18
2022-11-16T18:11:10.642Z,12.63
2022-11-16T18:13:37.647Z,11.77
2022-11-16T18:16:11.262Z,12.63
2022-11-16T18:18:38.350Z,9.23
2022-11-16T18:21:05.440Z,7.43
2022-11-16T18:23:33.874Z,16.00
2022-11-16T18:26:00.839Z,9.75
2022-11-16T18:28:27.176Z,6.95
2022-11-16T18:31:02.177Z,6.70
2022-11-16T18:33:30.529Z,13.38
2022-11-16T18:35:57.059Z,9.45
2022-11-16T18:38:23.398Z,10.32
2022-11-16T18:41:21.862Z,8.18
2022-11-16T18:43:55.144Z,7.18
2022-11-16T18:46:25.424Z,8.20
2022-11-16T18:48:52.246Z,9.40
2022-11-16T18:51:19.946Z,6.65
2022-11-16T18:53:46.494Z,11.90
2022-11-16T18:56:13.551Z,12.90
2022-11-16T18:58:55.659Z,9.10
2022-11-16T19:01:24.557Z,9.93
2022-11-16T19:03:52.731Z,10.75
2022-11-16T19:06:19.629Z,7.45
2022-11-16T19:08:51.780Z,9.52
2022-11-16T19:13:52.720Z,12.88
2022-11-16T19:16:19.034Z,13.05
2022-11-16T19:18:45.355Z,13.55
2022-11-16T19:21:13.751Z,9.65
2022-11-16T19:23:51.244Z,13.10
2022-11-16T19:26:19.563Z,8.73
2022-11-16T19:28:47.765Z,13.63
2022-11-16T19:31:16.151Z,12.40
2022-11-16T19:33:44.311Z,15.75
2022-11-16T19:36:17.129Z,13.02
2022-11-16T19:38:45.372Z,16.00
2022-11-16T19:41:13.021Z,11.77
2022-11-16T19:43:39.863Z,14.52
2022-11-16T19:46:12.273Z,10.30
2022-11-16T19:48:39.080Z,10.52
2022-11-16T19:51:06.462Z,9.63
2022-11-16T19:53:33.322Z,9.30
2022-11-16T19:55:59.919Z,9.27
2022-11-16T19:58:26.343Z,8.23
2022-11-16T20:00:52.759Z,7.55
2022-11-16T20:03:19.130Z,6.80
2022-11-16T20:05:45.462Z,5.68
2022-11-16T20:08:11.769Z,9.80
2022-11-16T20:10:38.104Z,6.38
2022-11-16T20:13:05.115Z,6.68
2022-11-16T20:15:31.934Z,7.38
2022-11-16T20:17:58.941Z,7.60
2022-11-16T20:20:25.835Z,6.80
2022-11-16T20:22:53.738Z,7.72
2022-11-16T20:25:20.164Z,8.40
2022-11-16T20:27:46.955Z,6.85
2022-11-16T20:30:16.565Z,7.35
2022-11-16T20:32:42.979Z,9.25
2022-11-16T20:35:09.318Z,7.68
2022-11-16T20:37:36.578Z,10.15
2022-11-16T20:40:03.103Z,6.20
2022-11-16T20:42:29.407Z,8.18
2022-11-16T20:44:55.830Z,4.78
2022-11-16T20:47:22.126Z,8.02
2022-11-16T20:49:48.473Z,7.32
2022-11-16T20:52:14.883Z,9.07
2022-11-16T20:54:41.207Z,8.07
2022-11-16T20:57:07.513Z,6.88
2022-11-16T20:59:33.851Z,7.07
2022-11-16T21:02:00.239Z,9.95
2022-11-16T21:04:27.137Z,7.65
2022-11-16T21:06:53.478Z,10.90
2022-11-16T21:09:22.724Z,7.38
2022-11-16T21:12:08.108Z,6.53
2022-11-16T21:14:34.516Z,7.80
2022-11-16T21:17:00.902Z,8.52
2022-11-16T21:19:27.261Z,8.65
2022-11-16T21:21:53.549Z,8.18
2022-11-16T21:24:19.962Z,10.85
2022-11-16T21:26:46.264Z,6.70
2022-11-16T21:29:12.692Z,12.15
2022-11-16T21:31:39.259Z,12.90
2022-11-16T21:34:07.152Z,9.15
2022-11-16T21:36:33.763Z,10.95
2022-11-16T21:39:00.796Z,8.00
2022-11-16T21:41:28.051Z,11.52
2022-11-16T21:43:55.063Z,10.80
2022-11-16T21:46:26.287Z,8.23
2022-11-16T21:48:55.290Z,9.05
2022-11-16T21:51:25.028Z,10.82
2022-11-16T21:53:51.661Z,9.15
2022-11-16T21:56:21.677Z,8.50
2022-11-16T21:58:49.785Z,12.77
2022-11-16T22:01:16.488Z,7.28
2022-11-16T22:03:43.140Z,8.70
2022-11-16T22:06:31.747Z,10.15
2022-11-16T22:08:58.807Z,11.38
2022-11-16T22:11:25.366Z,6.93
2022-11-16T22:13:51.749Z,8.77
2022-11-16T22:16:19.660Z,7.25
2022-11-16T22:18:46.403Z,8.43
2022-11-16T22:21:13.165Z,6.97
2022-11-16T22:23:39.928Z,9.95
2022-11-16T22:26:09.110Z,5.78
2022-11-16T22:28:36.489Z,11.10
2022-11-16T22:31:08.253Z,6.55
2022-11-16T22:33:35.532Z,8.02
2022-11-16T22:36:02.526Z,7.20
2022-11-16T22:38:28.994Z,9.10
2022-11-16T22:40:56.644Z,5.70
2022-11-16T22:43:28.128Z,6.43
2022-11-16T22:46:02.737Z,5.53
2022-11-16T22:48:33.901Z,8.70
2022-11-16T22:51:23.168Z,5.50
2022-11-16T22:54:00.720Z,7.90
2022-11-16T22:56:28.697Z,6.70
2022-11-16T22:58:55.607Z,5.15
2022-11-16T23:01:22.003Z,6.47
2022-11-16T23:03:48.756Z,4.57
2022-11-16T23:06:15.451Z,6.03
2022-11-16T23:08:42.150Z,6.18
2022-11-16T23:11:31.170Z,5.15
2022-11-16T23:14:17.078Z,5.80
2022-11-16T23:19:31.750Z,7.68
2022-11-16T23:22:17.001Z,4.22
2022-11-16T23:25:02.633Z,9.82
2022-11-16T23:27:50.644Z,9.20
2022-11-16T23:30:17.787Z,6.47
2022-11-16T23:32:44.131Z,5.75
2022-11-16T23:35:11.012Z,7.60
2022-11-16T23:37:57.232Z,6.45
2022-11-16T23:40:26.551Z,6.57
2022-11-16T23:43:12.798Z,6.38
2022-11-16T23:45:40.424Z,6.85
2022-11-16T23:48:08.827Z,7.82
2022-11-16T23:50:35.310Z,5.45
2022-11-16T23:53:02.039Z,5.70
2022-11-16T23:55:28.786Z,5.68
2022-11-16T23:57:55.187Z,5.72
